OSDI/DAM METAR and TAF weather

Enter ICAO airport designator
Station Type Date Time Source
OSDI METAR 2020/07/05 05:00 UTC NOAA

OSDI 050500Z 21012KT CAVOK 23/17 Q1006


Station Type Date Time Source
OSDI Decoded METAR 2020/07/05 05:00 UTC NOAA

Damascus Int. Airport, Syria (OSDI) 33-25N 036-31E 609M
Jul 05, 2020 - 01:00 AM EDT / 2020.07.05 0500 UTC
Wind: from the SSW (210 degrees) at 14 MPH (12 KT):0
Visibility: greater than 7 mile(s):0
Temperature: 73 F (23 C)
Dew Point: 62 F (17 C)
Relative Humidity: 68%
Pressure (altimeter): 29.71 in. Hg (1006 hPa)
ob: OSDI 050500Z 21012KT CAVOK 23/17 Q1006
cycle: 5

Station Type Date Time Source
OSDI TAF 2020/07/05 06:48 UTC NOAA

TAF TAF OSDI 050500Z 0506/0612 22010KT CAVOK
TEMPO 0512/0518 25015G25KT

Example: see airport list